Time;durP1;ratioP1;P1;durP2;ratioP2;P2;SDS_P1;SDS_P2;PMS_P1;PMS_P2;Temp;Humidity;BMP_temperature;BMP_pressure;BME280_temperature;BME280_humidity;BME280_pressure;Samples;Min_cycle;Max_cycle;Signal;HPM_P1;HPM_P2
2022/09/13 00:00:04;;;;;;;;;11.80;10.00;;;;;23.91;49.43;100306.94;5035015;28;45334;-52
2022/09/13 00:02:30;;;;;;;;;10.40;10.40;;;;;23.87;49.69;100306.75;5033645;28;45670;-52
2022/09/13 00:04:55;;;;;;;;;10.00;8.50;;;;;23.83;49.69;100302.91;5015464;28;45371;-53
2022/09/13 00:07:21;;;;;;;;;10.25;8.50;;;;;23.85;49.87;100303.41;5015306;28;45462;-53
2022/09/13 00:09:46;;;;;;;;;8.00;8.00;;;;;23.59;50.03;100275.97;5015110;28;46391;-51
2022/09/13 00:12:11;;;;;;;;;8.25;8.25;;;;;23.75;49.81;100309.25;4996960;28;45467;-52
2022/09/13 00:14:37;;;;;;;;;9.75;8.25;;;;;23.48;50.00;100280.91;5015390;28;45346;-54
2022/09/13 00:17:03;;;;;;;;;8.00;7.25;;;;;23.71;50.42;100325.00;5015199;28;45469;-52
2022/09/13 00:19:28;;;;;;;;;9.75;7.75;;;;;23.66;50.52;100311.94;5014690;28;45444;-52
2022/09/13 00:21:54;;;;;;;;;10.50;9.00;;;;;23.77;50.42;100324.59;5014240;28;45432;-55
2022/09/13 00:24:19;;;;;;;;;11.50;9.00;;;;;23.75;50.14;100315.66;5014744;28;45419;-51
2022/09/13 00:26:45;;;;;;;;;9.00;8.00;;;;;23.73;50.50;100309.56;5015113;28;45447;-55
2022/09/13 00:29:10;;;;;;;;;6.00;6.00;;;;;23.50;49.49;100263.81;4996668;28;46330;-52
2022/09/13 00:31:36;;;;;;;;;5.00;5.00;;;;;23.68;49.99;100298.44;4996663;28;46057;-53
2022/09/13 00:34:01;;;;;;;;;9.50;8.50;;;;;23.57;50.30;100285.81;5014521;28;45376;-51
2022/09/13 00:36:27;;;;;;;;;10.00;8.75;;;;;23.62;50.59;100303.31;5014535;28;45531;-51
2022/09/13 00:39:06;;;;;;;;;11.00;11.00;;;;;23.57;50.57;100285.81;5014349;28;46558;-54
2022/09/13 00:41:38;;;;;;;;;12.20;10.20;;;;;23.39;50.02;100263.19;4979416;28;45535;-55
2022/09/13 00:44:05;;;;;;;;;13.40;11.00;;;;;22.84;50.72;100176.03;4995886;28;45799;-51
2022/09/13 00:46:47;;;;;;;;;11.80;10.40;;;;;23.49;50.82;100279.81;5014320;28;45495;-53
2022/09/13 00:49:16;;;;;;;;;9.20;9.20;;;;;23.44;50.64;100273.44;4980149;28;45686;-53
2022/09/13 00:51:43;;;;;;;;;14.00;14.00;;;;;23.41;50.81;100280.50;4996451;28;45480;-55
2022/09/13 00:54:09;;;;;;;;;16.60;15.00;;;;;23.38;51.04;100273.53;4996899;28;45924;-55
2022/09/13 00:56:46;;;;;;;;;15.50;14.50;;;;;23.39;50.94;100278.03;4996596;28;45561;-52
2022/09/13 00:59:22;;;;;;;;;26.20;22.00;;;;;23.47;51.08;100278.44;4996000;28;46225;-53
2022/09/13 01:01:48;;;;;;;;;20.00;18.80;;;;;23.52;50.64;100278.31;5014347;28;45362;-51
2022/09/13 01:04:15;;;;;;;;;27.00;24.60;;;;;23.25;50.48;100226.75;4996764;28;45325;-53
2022/09/13 01:06:48;;;;;;;;;24.00;21.40;;;;;23.54;50.76;100270.47;5007992;28;45301;-53
2022/09/13 01:09:14;;;;;;;;;24.60;21.40;;;;;23.57;50.50;100269.81;5016117;28;46551;-54
2022/09/13 01:11:54;;;;;;;;;29.20;23.00;;;;;23.45;50.66;100266.72;5033252;28;45271;-52
2022/09/13 01:14:23;;;;;;;;;20.80;20.00;;;;;23.41;50.85;100272.09;4999322;28;45414;-52
2022/09/13 01:16:51;;;;;;;;;22.20;19.60;;;;;23.28;50.90;100254.13;5036891;28;45393;-52
2022/09/13 01:19:19;;;;;;;;;18.20;18.20;;;;;23.31;50.88;100247.94;4990133;28;46497;-51
2022/09/13 01:22:23;;;;;;;;;17.00;16.60;;;;;23.28;51.51;100249.34;5016238;28;45719;-52
2022/09/13 01:25:23;;;;;;;;;22.60;18.60;;;;;23.18;51.39;100231.94;5001845;28;45343;-51
2022/09/13 01:28:20;;;;;;;;;19.00;17.40;;;;;23.26;51.08;100256.44;4988684;28;45422;-52
2022/09/13 01:30:50;;;;;;;;;19.80;16.40;;;;;23.25;51.56;100246.34;5017240;28;46574;-51
2022/09/13 01:33:37;;;;;;;;;21.80;16.00;;;;;23.23;51.76;100246.69;5017011;28;45675;-53
2022/09/13 01:36:34;;;;;;;;;17.00;15.80;;;;;23.23;51.35;100249.47;4984616;28;45656;-53
2022/09/13 01:39:41;;;;;;;;;17.60;15.60;;;;;23.28;51.38;100249.34;4994606;28;45323;-53
2022/09/13 01:42:21;;;;;;;;;17.60;14.00;;;;;23.35;51.41;100240.59;4988178;28;47029;-54
2022/09/13 01:45:11;;;;;;;;;17.60;15.20;;;;;23.38;51.41;100244.75;4998847;28;45373;-52
2022/09/13 01:47:47;;;;;;;;;17.40;15.20;;;;;23.25;51.19;100213.59;5016813;28;45914;-53
2022/09/13 01:50:37;;;;;;;;;15.20;13.40;;;;;23.37;51.10;100226.28;4999348;28;45570;-55
2022/09/13 01:53:28;;;;;;;;;15.00;14.00;;;;;23.21;52.02;100226.53;4984582;28;48433;-53
2022/09/13 01:56:28;;;;;;;;;16.20;13.60;;;;;23.26;51.57;100231.25;5017065;28;45840;-54
2022/09/13 01:59:00;;;;;;;;;19.20;15.20;;;;;23.27;51.88;100221.69;4999086;28;45284;-53
2022/09/13 02:01:41;;;;;;;;;12.60;11.80;;;;;23.23;52.08;100221.47;4970791;28;45416;-52
2022/09/13 02:04:09;;;;;;;;;17.40;15.60;;;;;23.27;51.90;100225.31;4973633;28;45466;-53
2022/09/13 02:06:37;;;;;;;;;16.40;12.60;;;;;23.13;51.81;100194.53;4970183;28;45451;-53
2022/09/13 02:09:11;;;;;;;;;17.00;15.80;;;;;23.34;51.71;100226.88;4982628;28;45489;-52
2022/09/13 02:11:36;;;;;;;;;16.20;13.20;;;;;23.34;51.98;100215.69;4983643;28;45254;-51
2022/09/13 02:14:13;;;;;;;;;17.00;14.50;;;;;23.10;52.06;100189.53;4998607;28;47111;-53
2022/09/13 02:17:01;;;;;;;;;16.20;16.00;;;;;23.20;51.95;100215.69;4998823;28;45494;-52
2022/09/13 02:19:56;;;;;;;;;16.80;13.40;;;;;23.10;52.53;100217.53;4998699;28;45328;-52
2022/09/13 02:22:26;;;;;;;;;16.80;13.80;;;;;23.04;52.43;100199.16;4998124;28;45588;-52
2022/09/13 02:24:54;;;;;;;;;17.20;17.00;;;;;23.10;52.06;100213.91;4982194;28;47648;-51
2022/09/13 02:27:23;;;;;;;;;14.00;13.00;;;;;23.05;52.30;100197.22;4981260;28;45406;-50
2022/09/13 02:29:50;;;;;;;;;15.00;15.00;;;;;23.08;52.72;100205.81;4999190;28;45401;-55
2022/09/13 02:32:22;;;;;;;;;17.40;16.20;;;;;22.96;52.78;100195.16;4982729;28;45614;-51
2022/09/13 02:35:15;;;;;;;;;20.40;17.60;;;;;22.92;52.50;100196.06;4999062;28;46362;-50
2022/09/13 02:37:41;;;;;;;;;15.60;15.00;;;;;22.99;52.62;100194.50;4999793;28;45279;-56
2022/09/13 02:40:09;;;;;;;;;14.60;13.40;;;;;22.95;52.41;100196.25;4998434;28;45355;-50
2022/09/13 02:42:35;;;;;;;;;15.00;12.80;;;;;22.96;52.70;100200.75;4998647;28;45555;-54
2022/09/13 02:45:00;;;;;;;;;13.50;11.00;;;;;22.96;52.98;100192.34;5016205;28;46600;-53
2022/09/13 02:47:34;;;;;;;;;13.50;12.50;;;;;22.92;52.46;100198.84;4997966;28;45382;-54
2022/09/13 02:50:21;;;;;;;;;9.00;8.20;;;;;22.85;52.36;100190.88;5016401;28;45435;-53
2022/09/13 02:52:56;;;;;;;;;9.80;9.80;;;;;22.79;52.66;100184.53;5016320;28;45314;-55
2022/09/13 02:55:44;;;;;;;;;9.40;8.80;;;;;22.79;52.83;100181.72;4998275;28;45827;-49
2022/09/13 02:58:18;;;;;;;;;10.00;8.60;;;;;22.80;52.85;100180.63;4997842;28;45395;-51
2022/09/13 03:00:46;;;;;;;;;13.20;8.60;;;;;22.78;52.92;100182.06;4998542;28;45467;-55
2022/09/13 03:03:11;;;;;;;;;5.40;5.40;;;;;22.65;52.56;100164.94;4998127;28;45451;-52
2022/09/13 03:05:37;;;;;;;;;8.50;7.00;;;;;22.87;52.56;100186.63;4981639;28;46262;-49
2022/09/13 03:08:02;;;;;;;;;7.00;7.00;;;;;22.89;52.22;100177.91;4996677;28;45529;-53
2022/09/13 03:10:33;;;;;;;;;7.50;7.50;;;;;22.82;52.60;100178.34;4961882;28;45440;-54
2022/09/13 03:13:40;;;;;;;;;7.80;7.00;;;;;22.82;52.44;100171.91;4962724;28;45276;-51
2022/09/13 03:16:09;;;;;;;;;8.20;6.60;;;;;22.67;52.26;100147.88;4975253;28;46221;-54
2022/09/13 03:18:52;;;;;;;;;6.20;6.20;;;;;22.58;52.69;100147.75;4984041;28;45348;-54
2022/09/13 03:21:48;;;;;;;;;8.40;8.20;;;;;22.79;52.84;100181.72;4982320;28;45419;-49
2022/09/13 03:24:19;;;;;;;;;7.00;7.00;;;;;22.78;52.91;100168.88;5015723;28;45507;-49
2022/09/13 03:26:59;;;;;;;;;8.80;7.80;;;;;22.84;52.77;100172.44;5015358;28;45791;-49
2022/09/13 03:29:39;;;;;;;;;7.60;7.00;;;;;22.88;52.60;100170.66;4982553;28;45247;-53
2022/09/13 03:32:17;;;;;;;;;8.20;8.20;;;;;22.90;52.56;100175.94;5015456;28;45369;-55
2022/09/13 03:34:45;;;;;;;;;11.20;10.00;;;;;22.98;52.34;100186.41;5014994;28;45299;-50
2022/09/13 03:37:14;;;;;;;;;6.00;6.00;;;;;22.98;52.47;100186.41;5015355;28;46325;-50
2022/09/13 03:39:41;;;;;;;;;8.40;7.00;;;;;22.88;52.51;100170.66;5014799;28;45307;-54
2022/09/13 03:42:36;;;;;;;;;8.40;6.00;;;;;22.93;52.43;100187.34;4981383;28;45499;-53
2022/09/13 03:45:02;;;;;;;;;6.60;6.60;;;;;22.91;52.50;100186.84;5009495;28;45349;-51
2022/09/13 03:47:28;;;;;;;;;5.40;5.40;;;;;22.73;52.49;100163.41;4997066;28;46609;-53
2022/09/13 03:49:54;;;;;;;;;6.00;6.00;;;;;22.86;51.91;100190.56;4980917;28;45509;-52
2022/09/13 03:52:20;;;;;;;;;6.50;6.50;;;;;22.93;52.47;100192.13;4981683;28;45848;-53
2022/09/13 03:54:45;;;;;;;;;6.00;6.00;;;;;22.74;52.29;100146.31;4997248;28;45513;-51
2022/09/13 03:57:20;;;;;;;;;3.00;3.00;;;;;23.01;51.98;100169.84;4997560;28;46272;-56
2022/09/13 03:59:46;;;;;;;;;6.60;6.20;;;;;23.01;52.20;100181.03;5014657;28;45366;-50
2022/09/13 04:02:11;;;;;;;;;6.00;6.00;;;;;22.70;51.79;100139.69;5014986;28;45375;-53
2022/09/13 04:04:41;;;;;;;;;4.00;4.00;;;;;22.90;52.26;100178.75;4997410;28;45293;-53
2022/09/13 04:07:07;;;;;;;;;5.00;5.00;;;;;22.94;52.68;100191.00;5025287;28;46489;-51
2022/09/13 04:09:33;;;;;;;;;4.60;4.60;;;;;23.01;52.36;100197.00;5034876;28;45373;-55
2022/09/13 04:11:58;;;;;;;;;4.50;4.25;;;;;23.02;52.42;100188.28;5034788;28;45345;-53
2022/09/13 04:14:25;;;;;;;;;6.75;5.75;;;;;23.06;52.01;100188.53;5034990;28;45377;-53
2022/09/13 04:16:55;;;;;;;;;5.80;4.20;;;;;23.07;52.06;100173.38;5017170;28;46998;-53
2022/09/13 04:19:21;;;;;;;;;4.40;4.40;;;;;23.08;52.67;100165.81;5034617;28;45497;-52
2022/09/13 04:21:50;;;;;;;;;6.25;6.25;;;;;23.06;52.39;100168.94;5034954;28;45435;-54
2022/09/13 04:24:16;;;;;;;;;5.60;5.60;;;;;22.96;52.25;100181.16;5034903;28;45588;-50
2022/09/13 04:26:41;;;;;;;;;6.50;6.25;;;;;22.94;52.65;100182.59;5034811;28;45455;-53
2022/09/13 04:29:07;;;;;;;;;7.00;5.00;;;;;23.01;52.17;100199.81;5034292;28;45248;-49
2022/09/13 04:31:32;;;;;;;;;6.00;5.00;;;;;23.00;52.37;100198.16;5017169;28;45374;-54
2022/09/13 04:33:59;;;;;;;;;5.00;5.00;;;;;23.05;52.65;100197.22;5034980;28;45244;-50
2022/09/13 04:36:24;;;;;;;;;4.00;4.00;;;;;23.06;52.12;100177.31;5034255;28;46499;-53
2022/09/13 04:38:50;;;;;;;;;6.00;5.50;;;;;22.93;52.12;100147.38;5016831;28;45410;-50
2022/09/13 04:41:16;;;;;;;;;6.50;6.50;;;;;23.10;52.49;100180.34;5034655;28;45378;-50
2022/09/13 04:43:42;;;;;;;;;6.40;6.40;;;;;22.87;52.03;100153.06;5000320;28;45638;-53
2022/09/13 04:46:07;;;;;;;;;7.75;7.75;;;;;23.05;52.39;100181.25;5034105;28;45466;-54
2022/09/13 04:48:33;;;;;;;;;5.25;5.25;;;;;23.09;52.17;100192.63;5034086;28;45441;-53
2022/09/13 04:51:03;;;;;;;;;6.50;6.50;;;;;23.07;52.40;100198.56;5036204;28;45469;-50
2022/09/13 04:53:29;;;;;;;;;6.00;6.00;;;;;23.04;52.47;100198.34;5003370;28;45610;-52
2022/09/13 04:56:02;;;;;;;;;3.50;3.50;;;;;23.00;52.23;100198.97;5037802;28;45412;-53
2022/09/13 04:58:28;;;;;;;;;4.20;4.20;;;;;23.01;52.45;100199.81;5037753;28;45354;-53
2022/09/13 05:00:55;;;;;;;;;5.40;5.40;;;;;23.00;52.93;100198.97;5037971;28;45327;-52
2022/09/13 05:03:21;;;;;;;;;5.40;5.00;;;;;23.00;52.63;100193.38;5020227;28;45292;-50
2022/09/13 05:05:47;;;;;;;;;4.20;4.20;;;;;23.01;52.90;100192.22;5019454;28;47267;-51
2022/09/13 05:08:12;;;;;;;;;4.00;4.00;;;;;23.01;52.60;100188.63;5018185;28;45494;-51
2022/09/13 05:10:38;;;;;;;;;6.00;4.25;;;;;22.88;52.84;100162.25;5017767;28;45375;-53
2022/09/13 05:13:04;;;;;;;;;5.50;3.00;;;;;22.94;52.90;100171.41;5017550;28;45688;-54
2022/09/13 05:15:29;;;;;;;;;7.50;5.50;;;;;22.92;53.09;100196.06;5017429;28;46040;-53
2022/09/13 05:17:55;;;;;;;;;5.00;5.00;;;;;22.89;52.99;100217.06;5017750;28;45436;-53
2022/09/13 05:20:21;;;;;;;;;4.00;3.50;;;;;22.86;53.21;100228.91;5017386;28;45500;-52
2022/09/13 05:22:46;;;;;;;;;5.50;5.25;;;;;22.84;53.26;100223.59;5017869;28;45600;-52
2022/09/13 05:25:12;;;;;;;;;5.00;5.00;;;;;22.81;53.41;100204.66;5017148;28;45468;-50
2022/09/13 05:27:38;;;;;;;;;4.60;4.60;;;;;22.73;53.77;100192.19;5017288;28;45474;-50
2022/09/13 05:30:04;;;;;;;;;5.00;5.00;;;;;22.74;53.51;100198.63;4999782;28;45353;-50
2022/09/13 05:32:31;;;;;;;;;3.60;3.60;;;;;22.68;53.52;100194.25;4999759;28;45704;-53
2022/09/13 05:34:56;;;;;;;;;4.00;4.00;;;;;22.74;53.61;100193.03;5017314;28;46116;-54
2022/09/13 05:37:22;;;;;;;;;5.00;5.00;;;;;22.70;53.96;100191.97;4999230;28;45431;-53
2022/09/13 05:39:47;;;;;;;;;6.50;5.50;;;;;22.65;54.09;100195.72;5017225;28;45433;-54
2022/09/13 05:42:12;;;;;;;;;4.75;4.75;;;;;22.63;54.24;100194.34;5017564;28;45513;-55
2022/09/13 05:44:38;;;;;;;;;4.00;4.00;;;;;22.65;54.12;100211.66;5017131;28;46478;-51
2022/09/13 05:47:04;;;;;;;;;4.50;4.00;;;;;22.65;54.05;100201.31;5017063;28;45349;-51
2022/09/13 05:49:30;;;;;;;;;4.20;4.20;;;;;22.65;54.34;100201.31;5017004;28;45886;-54
2022/09/13 05:51:55;;;;;;;;;4.50;4.50;;;;;22.65;54.52;100206.06;4983129;28;46139;-54
2022/09/13 05:54:21;;;;;;;;;6.00;6.00;;;;;22.63;54.18;100203.59;5016888;28;46387;-55
2022/09/13 05:56:46;;;;;;;;;6.50;6.00;;;;;22.60;54.24;100201.38;5016920;28;45525;-54
2022/09/13 05:59:13;;;;;;;;;4.75;4.25;;;;;22.40;54.46;100164.22;4999208;28;45348;-52
2022/09/13 06:01:39;;;;;;;;;4.00;4.00;;;;;22.56;54.33;100194.72;5017022;28;46008;-52
2022/09/13 06:04:04;;;;;;;;;6.25;6.25;;;;;22.56;54.71;100198.38;4998703;28;47946;-54
2022/09/13 06:06:30;;;;;;;;;5.00;5.00;;;;;22.55;54.96;100193.06;5003837;28;45389;-51
2022/09/13 06:08:56;;;;;;;;;8.25;6.00;;;;;22.55;54.97;100185.53;5036811;28;45462;-50
2022/09/13 06:11:21;;;;;;;;;8.00;8.00;;;;;22.37;54.68;100150.88;4990950;28;45318;-51
2022/09/13 06:13:47;;;;;;;;;5.50;5.50;;;;;22.56;54.69;100183.53;4998360;28;46464;-53
2022/09/13 06:16:14;;;;;;;;;3.00;3.00;;;;;22.38;54.18;100155.31;5016608;28;45376;-52
2022/09/13 06:18:40;;;;;;;;;6.20;6.00;;;;;22.42;54.19;100155.53;5015144;28;45445;-55
2022/09/13 06:21:10;;;;;;;;;9.75;8.00;;;;;22.52;54.54;100174.94;5015603;28;45427;-53
2022/09/13 06:23:35;;;;;;;;;5.40;5.40;;;;;22.41;54.41;100156.69;4998825;28;47178;-54
2022/09/13 06:26:06;;;;;;;;;7.25;5.00;;;;;22.52;54.48;100169.34;5016412;28;45281;-50
2022/09/13 06:28:32;;;;;;;;;7.20;5.00;;;;;22.52;54.22;100163.75;5016864;28;45228;-53
2022/09/13 06:31:16;;;;;;;;;7.00;5.75;;;;;22.54;54.23;100163.47;5016894;28;45168;-52
2022/09/13 06:33:41;;;;;;;;;4.40;4.40;;;;;22.53;54.53;100154.25;4998903;28;46308;-52
2022/09/13 06:36:13;;;;;;;;;5.00;5.00;;;;;22.56;54.39;100150.84;5015019;28;45298;-51
2022/09/13 06:38:39;;;;;;;;;5.60;5.40;;;;;22.36;54.46;100112.84;5016491;28;45439;-53
2022/09/13 06:41:06;;;;;;;;;6.75;6.75;;;;;22.59;54.29;100141.00;5015170;28;45482;-51
2022/09/13 06:43:32;;;;;;;;;9.60;7.80;;;;;22.21;54.24;100083.25;4998798;28;46351;-53
2022/09/13 06:46:07;;;;;;;;;7.80;7.80;;;;;22.61;54.26;100133.97;4998072;28;45332;-54
2022/09/13 06:48:34;;;;;;;;;7.00;6.60;;;;;22.63;54.42;100130.03;5014613;28;45299;-54
2022/09/13 06:51:00;;;;;;;;;8.00;6.60;;;;;22.68;54.39;100127.16;5014977;28;45505;-55
2022/09/13 06:53:27;;;;;;;;;10.00;7.80;;;;;22.42;54.00;100071.69;4998384;28;46768;-55
2022/09/13 06:56:05;;;;;;;;;8.60;6.40;;;;;22.75;54.07;100105.19;5014769;28;45433;-52
2022/09/13 06:58:31;;;;;;;;;7.20;7.20;;;;;22.79;53.52;100106.22;5016782;28;45284;-53
2022/09/13 07:01:15;;;;;;;;;13.25;10.00;;;;;22.67;53.56;100087.16;4998552;28;45261;-52
2022/09/13 07:03:44;;;;;;;;;13.80;9.00;;;;;22.60;53.57;100067.16;5014273;28;46826;-54
2022/09/13 07:06:30;;;;;;;;;10.20;8.40;;;;;22.82;53.70;100094.41;5016038;28;45371;-54
2022/09/13 07:08:56;;;;;;;;;8.60;8.60;;;;;22.78;53.67;100092.56;5011167;28;45388;-55
2022/09/13 07:11:22;;;;;;;;;13.40;8.80;;;;;22.81;53.54;100098.34;5011444;28;45333;-56
2022/09/13 07:13:49;;;;;;;;;8.40;7.60;;;;;22.77;53.03;100102.91;4995258;28;46670;-54
2022/09/13 07:16:14;;;;;;;;;9.60;8.20;;;;;22.77;53.31;100097.31;4996163;28;45476;-55
2022/09/13 07:18:40;;;;;;;;;11.00;9.00;;;;;22.68;53.31;100086.00;5000685;28;45489;-52
2022/09/13 07:21:08;;;;;;;;;9.75;6.00;;;;;22.73;53.65;100091.50;5014761;28;45640;-54
2022/09/13 07:23:35;;;;;;;;;5.00;5.00;;;;;22.71;53.13;100084.56;5030989;28;46649;-52
2022/09/13 07:26:01;;;;;;;;;7.00;7.00;;;;;22.77;53.29;100083.31;5030510;28;45480;-51
2022/09/13 07:28:38;;;;;;;;;4.75;4.75;;;;;22.67;53.73;100052.78;5015809;28;45355;-52
2022/09/13 07:31:12;;;;;;;;;6.00;6.00;;;;;22.92;53.23;100082.19;5015948;28;45415;-51
2022/09/13 07:33:38;;;;;;;;;5.60;5.40;;;;;22.95;53.13;100089.13;4997642;28;46438;-55
2022/09/13 07:36:05;;;;;;;;;5.40;5.00;;;;;22.88;52.99;100076.38;4971117;28;47358;-47
2022/09/13 07:38:33;;;;;;;;;5.60;5.60;;;;;23.01;53.08;100096.28;4984363;28;45987;-51
2022/09/13 07:40:58;;;;;;;;;7.60;6.00;;;;;23.10;53.22;100102.78;4997207;28;45861;-49
2022/09/13 07:43:24;;;;;;;;;9.50;6.25;;;;;23.12;52.98;100096.88;5026226;28;46008;-51
2022/09/13 07:45:57;;;;;;;;;6.60;5.40;;;;;23.09;52.95;100077.91;5018027;28;45496;-53
2022/09/13 07:48:23;;;;;;;;;6.00;6.00;;;;;23.23;53.27;100098.31;5014466;28;45322;-52
2022/09/13 07:51:21;;;;;;;;;5.50;5.50;;;;;23.23;52.81;100097.50;5015634;28;45650;-52
2022/09/13 07:53:47;;;;;;;;;4.40;4.40;;;;;23.32;53.11;100094.81;4999311;28;46005;-52
2022/09/13 07:56:14;;;;;;;;;10.80;9.00;;;;;23.30;52.62;100097.91;5015100;28;46144;-52
2022/09/13 07:58:41;;;;;;;;;8.00;7.00;;;;;23.35;52.66;100100.59;5015198;28;45401;-52
2022/09/13 08:01:06;;;;;;;;;8.60;6.60;;;;;23.40;52.77;100103.31;4997075;28;45563;-53
2022/09/13 08:03:33;;;;;;;;;6.50;6.50;;;;;23.44;52.31;100100.69;5014779;28;45838;-52
2022/09/13 08:05:58;;;;;;;;;7.60;7.60;;;;;23.49;52.04;100110.94;4997281;28;45418;-52
2022/09/13 08:08:24;;;;;;;;;6.75;5.75;;;;;23.52;51.99;100104.69;5012237;28;45422;-48
2022/09/13 08:10:50;;;;;;;;;7.00;6.00;;;;;23.55;52.01;100101.28;5034876;28;45310;-51
2022/09/13 08:13:15;;;;;;;;;8.50;7.25;;;;;23.50;52.28;100104.19;5034428;28;46078;-52
2022/09/13 08:15:42;;;;;;;;;9.00;9.00;;;;;23.54;52.70;100114.44;5034361;28;45366;-49
2022/09/13 08:18:08;;;;;;;;;9.60;9.60;;;;;23.44;52.16;100069.91;5016807;28;45497;-53
2022/09/13 08:20:39;;;;;;;;;10.60;9.00;;;;;23.71;51.77;100098.94;5000686;28;45645;-54
2022/09/13 08:23:05;;;;;;;;;11.80;9.20;;;;;23.40;51.44;100050.09;5034598;28;45406;-52
2022/09/13 08:25:34;;;;;;;;;9.00;8.00;;;;;23.72;51.22;100089.41;5035348;28;45353;-50
2022/09/13 08:28:16;;;;;;;;;10.00;8.80;;;;;23.65;51.59;100075.81;5020435;28;45450;-49
2022/09/13 08:30:42;;;;;;;;;8.40;7.60;;;;;23.57;52.71;100042.97;5021328;28;45302;-56
2022/09/13 08:33:08;;;;;;;;;6.00;5.00;;;;;23.87;51.66;100090.16;5038340;28;45811;-53
2022/09/13 08:35:34;;;;;;;;;6.80;6.40;;;;;23.69;51.46;100071.25;5038041;28;45335;-55
2022/09/13 08:37:59;;;;;;;;;8.00;6.50;;;;;23.79;51.08;100092.59;4992661;28;46126;-51
2022/09/13 08:40:27;;;;;;;;;5.75;4.50;;;;;23.77;51.05;100106.09;5018507;28;45374;-55
2022/09/13 08:43:14;;;;;;;;;5.20;5.20;;;;;23.79;52.23;100116.94;5000383;28;45370;-51
2022/09/13 08:45:39;;;;;;;;;7.40;5.40;;;;;23.83;51.65;100126.41;5018072;28;45232;-53
2022/09/13 08:48:11;;;;;;;;;7.75;6.75;;;;;23.83;51.05;100113.22;5017785;28;45224;-56
2022/09/13 08:50:43;;;;;;;;;5.00;4.80;;;;;23.91;51.32;100136.84;4952989;28;45410;-58
2022/09/13 08:53:28;;;;;;;;;3.20;3.20;;;;;23.93;51.08;100134.56;5014783;28;45403;-56
2022/09/13 08:56:09;;;;;;;;;6.20;4.80;;;;;23.96;51.44;100135.91;4998906;28;45447;-53
2022/09/13 08:58:43;;;;;;;;;5.40;4.20;;;;;23.99;50.80;100134.41;5016747;28;45300;-57
2022/09/13 09:01:23;;;;;;;;;5.40;5.40;;;;;24.02;51.26;100134.59;5015402;28;45737;-52
2022/09/13 09:04:13;;;;;;;;;6.20;4.60;;;;;24.04;51.17;100137.09;5015133;28;45542;-57
2022/09/13 09:06:38;;;;;;;;;8.60;7.00;;;;;23.96;50.73;100122.72;5016137;28;45383;-57
2022/09/13 09:09:09;;;;;;;;;7.75;7.50;;;;;23.90;51.46;100109.97;5018177;28;45419;-57
2022/09/13 09:11:40;;;;;;;;;2.40;2.40;;;;;24.02;51.26;100150.59;5001838;28;45446;-56
2022/09/13 09:14:32;;;;;;;;;7.20;5.60;;;;;23.99;51.45;100156.84;5018584;28;47584;-56
2022/09/13 09:17:03;;;;;;;;;6.80;5.00;;;;;23.98;51.30;100164.44;5003336;28;45740;-59
2022/09/13 09:19:34;;;;;;;;;4.60;4.60;;;;;23.96;51.52;100158.31;5015263;28;45485;-55
2022/09/13 09:22:03;;;;;;;;;5.80;4.40;;;;;23.93;52.06;100154.19;4998741;28;45431;-56
2022/09/13 09:24:35;;;;;;;;;10.20;7.80;;;;;23.94;54.25;100161.44;5016512;28;46730;-58
2022/09/13 09:27:01;;;;;;;;;7.00;3.80;;;;;23.90;54.52;100151.19;4998026;28;46150;-57
2022/09/13 09:29:31;;;;;;;;;5.75;4.50;;;;;23.90;55.30;100149.19;4985507;28;45358;-56
2022/09/13 09:32:08;;;;;;;;;7.20;6.00;;;;;23.95;55.35;100149.06;5009979;28;45434;-57
2022/09/13 09:34:41;;;;;;;;;7.40;6.80;;;;;23.85;55.97;100138.09;5016473;28;50149;-58
2022/09/13 09:37:19;;;;;;;;;6.80;5.60;;;;;23.94;56.77;100158.63;4983805;28;45595;-52
2022/09/13 09:39:45;;;;;;;;;10.80;8.40;;;;;23.98;57.59;100163.59;5014636;28;45316;-55
2022/09/13 09:42:16;;;;;;;;;6.50;6.50;;;;;23.89;56.73;100157.91;4997623;28;45392;-55
2022/09/13 09:44:44;;;;;;;;;9.40;6.00;;;;;24.01;57.62;100172.19;5000425;28;46364;-61
2022/09/13 09:47:21;;;;;;;;;11.80;10.20;;;;;24.03;56.63;100169.91;5022917;28;45357;-58
2022/09/13 09:50:11;;;;;;;;;6.40;6.40;;;;;24.04;55.54;100179.13;4987580;28;45432;-59
2022/09/13 09:52:44;;;;;;;;;7.40;7.40;;;;;24.07;55.55;100170.16;5013936;28;45549;-57
2022/09/13 09:55:36;;;;;;;;;8.80;8.80;;;;;24.07;55.37;100173.75;4998095;28;45849;-58
2022/09/13 09:58:05;;;;;;;;;8.20;8.20;;;;;24.09;55.60;100174.28;4997655;28;45807;-57
2022/09/13 10:00:35;;;;;;;;;7.40;7.40;;;;;24.05;54.67;100173.22;5016069;28;45847;-56
2022/09/13 10:03:14;;;;;;;;;6.40;6.40;;;;;24.05;54.88;100169.56;4998542;28;45776;-56
2022/09/13 10:05:39;;;;;;;;;8.00;8.00;;;;;24.08;54.31;100178.22;4988839;28;47143;-55
2022/09/13 10:08:05;;;;;;;;;8.50;7.50;;;;;24.07;54.34;100173.75;5005926;28;45469;-55
2022/09/13 10:10:41;;;;;;;;;8.00;7.00;;;;;24.15;53.83;100174.13;5017836;28;45410;-55
2022/09/13 10:13:07;;;;;;;;;7.20;6.40;;;;;24.16;53.64;100165.41;5018227;28;45585;-55
2022/09/13 10:15:34;;;;;;;;;8.50;7.50;;;;;24.24;53.97;100169.44;5017675;28;45512;-54
2022/09/13 10:18:15;;;;;;;;;7.00;7.00;;;;;24.28;53.91;100172.44;5001368;28;45427;-56
2022/09/13 10:20:42;;;;;;;;;6.60;6.60;;;;;24.19;53.15;100144.34;5015189;28;45370;-56
2022/09/13 10:23:16;;;;;;;;;7.40;6.60;;;;;24.39;53.18;100168.22;4998004;28;45334;-55
2022/09/13 10:25:44;;;;;;;;;7.00;7.00;;;;;24.40;53.07;100172.69;5014084;28;46540;-57
2022/09/13 10:28:17;;;;;;;;;6.40;6.40;;;;;24.32;53.03;100153.81;4997652;28;45392;-55
2022/09/13 10:30:46;;;;;;;;;5.40;5.40;;;;;24.23;52.22;100128.53;4996236;28;45360;-56
2022/09/13 10:33:28;;;;;;;;;5.80;5.80;;;;;24.47;52.75;100163.81;5014481;28;45617;-55
2022/09/13 10:35:56;;;;;;;;;5.40;3.80;;;;;24.51;51.95;100162.03;4997138;28;46121;-57
2022/09/13 10:38:30;;;;;;;;;4.80;4.80;;;;;24.51;51.54;100159.22;4969830;28;45360;-57
2022/09/13 10:40:55;;;;;;;;;6.60;5.00;;;;;24.57;52.21;100157.09;5013292;28;45481;-58
2022/09/13 10:43:21;;;;;;;;;4.50;4.50;;;;;24.57;52.21;100143.91;5035193;28;45392;-57
2022/09/13 10:45:50;;;;;;;;;7.50;7.00;;;;;24.67;51.70;100150.38;5016817;28;46292;-55
2022/09/13 10:48:16;;;;;;;;;6.00;3.60;;;;;24.73;51.26;100151.91;5033725;28;45417;-56
2022/09/13 10:51:05;;;;;;;;;5.80;5.80;;;;;24.77;51.18;100148.13;5036079;28;45482;-56
2022/09/13 10:53:40;;;;;;;;;6.00;5.60;;;;;24.84;51.08;100144.91;5036378;28;45355;-55
2022/09/13 10:56:20;;;;;;;;;9.40;7.60;;;;;24.91;50.88;100141.59;4977916;28;46080;-58
2022/09/13 10:58:45;;;;;;;;;6.40;6.00;;;;;24.98;50.50;100130.72;5018257;28;45524;-54
2022/09/13 11:01:19;;;;;;;;;4.75;4.75;;;;;25.05;51.17;100135.88;5015663;28;45364;-56
2022/09/13 11:04:03;;;;;;;;;6.00;6.00;;;;;25.14;50.24;100130.31;5000773;28;45383;-56
2022/09/13 11:06:35;;;;;;;;;4.80;4.80;;;;;25.18;50.14;100120.06;5016611;28;46059;-55
2022/09/13 11:09:19;;;;;;;;;7.40;6.00;;;;;25.25;49.34;100128.84;4998696;28;45849;-53
2022/09/13 11:11:53;;;;;;;;;5.60;5.60;;;;;25.33;49.56;100132.00;4974410;28;45462;-57
2022/09/13 11:14:55;;;;;;;;;5.00;5.00;;;;;25.39;49.63;100123.09;5019773;28;45335;-51
2022/09/13 11:17:34;;;;;;;;;7.60;6.80;;;;;25.30;49.73;100103.41;5034667;28;46341;-55
2022/09/13 11:20:18;;;;;;;;;9.20;6.40;;;;;25.54;49.65;100130.25;5000169;28;45396;-58
2022/09/13 11:23:13;;;;;;;;;6.00;6.00;;;;;25.52;49.46;100100.78;5035128;28;45722;-58
2022/09/13 11:25:50;;;;;;;;;6.00;5.60;;;;;25.75;48.74;100123.97;4980661;28;45379;-54
2022/09/13 11:28:37;;;;;;;;;7.00;7.00;;;;;25.86;48.05;100121.66;5035531;28;46547;-54
2022/09/13 11:31:31;;;;;;;;;5.00;5.00;;;;;25.92;48.72;100117.53;5031162;28;45334;-55
2022/09/13 11:34:15;;;;;;;;;5.60;5.60;;;;;25.93;47.57;100116.34;5002106;28;45428;-54
2022/09/13 11:37:02;;;;;;;;;5.00;4.60;;;;;25.93;48.51;100105.13;5034359;28;45647;-57
2022/09/13 11:39:31;;;;;;;;;6.20;5.00;;;;;25.91;48.35;100104.63;5034340;28;46128;-58
2022/09/13 11:42:24;;;;;;;;;8.20;6.00;;;;;25.71;48.04;100090.09;5032771;28;45403;-58